sensor_id;sensor_type;location;lat;lon;timestamp;temperature;humidity
5938;DHT22;2994;51.220;4.412;2023-11-19T00:00:18;15.61;86.98
5938;DHT22;2994;51.220;4.412;2023-11-19T00:02:44;15.73;86.41
5938;DHT22;2994;51.220;4.412;2023-11-19T00:05:10;15.66;86.82
5938;DHT22;2994;51.220;4.412;2023-11-19T00:07:39;15.67;86.77
5938;DHT22;2994;51.220;4.412;2023-11-19T00:10:09;15.61;86.88
5938;DHT22;2994;51.220;4.412;2023-11-19T00:12:36;15.60;86.71
5938;DHT22;2994;51.220;4.412;2023-11-19T00:15:02;15.61;86.65
5938;DHT22;2994;51.220;4.412;2023-11-19T00:17:27;15.56;86.88
5938;DHT22;2994;51.220;4.412;2023-11-19T00:19:53;15.68;86.52
5938;DHT22;2994;51.220;4.412;2023-11-19T00:22:18;15.72;86.34
5938;DHT22;2994;51.220;4.412;2023-11-19T00:24:43;15.67;86.58
5938;DHT22;2994;51.220;4.412;2023-11-19T00:27:10;15.71;86.39
5938;DHT22;2994;51.220;4.412;2023-11-19T00:29:35;15.71;86.44
5938;DHT22;2994;51.220;4.412;2023-11-19T00:32:01;15.63;86.64
5938;DHT22;2994;51.220;4.412;2023-11-19T00:34:27;15.61;86.75
5938;DHT22;2994;51.220;4.412;2023-11-19T00:36:52;15.70;86.38
5938;DHT22;2994;51.220;4.412;2023-11-19T00:39:18;15.75;86.19
5938;DHT22;2994;51.220;4.412;2023-11-19T00:41:44;15.62;86.86
5938;DHT22;2994;51.220;4.412;2023-11-19T00:44:11;15.71;86.48
5938;DHT22;2994;51.220;4.412;2023-11-19T00:46:37;15.75;86.30
5938;DHT22;2994;51.220;4.412;2023-11-19T00:49:03;15.74;86.30
5938;DHT22;2994;51.220;4.412;2023-11-19T00:51:28;15.80;85.99
5938;DHT22;2994;51.220;4.412;2023-11-19T00:53:56;15.70;86.38
5938;DHT22;2994;51.220;4.412;2023-11-19T00:56:22;15.70;86.22
5938;DHT22;2994;51.220;4.412;2023-11-19T00:58:48;15.70;86.11
5938;DHT22;2994;51.220;4.412;2023-11-19T01:01:13;15.77;85.70
5938;DHT22;2994;51.220;4.412;2023-11-19T01:03:39;15.76;85.65
5938;DHT22;2994;51.220;4.412;2023-11-19T01:06:04;15.69;85.92
5938;DHT22;2994;51.220;4.412;2023-11-19T01:08:30;15.75;85.55
5938;DHT22;2994;51.220;4.412;2023-11-19T01:10:55;15.81;85.23
5938;DHT22;2994;51.220;4.412;2023-11-19T01:13:21;15.69;85.51
5938;DHT22;2994;51.220;4.412;2023-11-19T01:15:46;15.65;85.58
5938;DHT22;2994;51.220;4.412;2023-11-19T01:18:13;15.59;85.26
5938;DHT22;2994;51.220;4.412;2023-11-19T01:20:38;15.66;85.04
5938;DHT22;2994;51.220;4.412;2023-11-19T01:23:04;15.46;85.54
5938;DHT22;2994;51.220;4.412;2023-11-19T01:25:29;15.58;84.97
5938;DHT22;2994;51.220;4.412;2023-11-19T01:27:54;15.58;84.40
5938;DHT22;2994;51.220;4.412;2023-11-19T01:30:23;15.59;84.25
5938;DHT22;2994;51.220;4.412;2023-11-19T01:32:49;15.58;83.94
5938;DHT22;2994;51.220;4.412;2023-11-19T01:35:14;15.59;83.50
5938;DHT22;2994;51.220;4.412;2023-11-19T01:37:40;15.56;83.31
5938;DHT22;2994;51.220;4.412;2023-11-19T01:40:06;15.49;83.64
5938;DHT22;2994;51.220;4.412;2023-11-19T01:42:37;15.57;83.27
5938;DHT22;2994;51.220;4.412;2023-11-19T01:45:07;15.60;83.14
5938;DHT22;2994;51.220;4.412;2023-11-19T01:47:35;15.58;83.40
5938;DHT22;2994;51.220;4.412;2023-11-19T01:50:03;15.56;83.49
5938;DHT22;2994;51.220;4.412;2023-11-19T01:52:32;15.56;83.52
5938;DHT22;2994;51.220;4.412;2023-11-19T01:55:00;15.57;83.32
5938;DHT22;2994;51.220;4.412;2023-11-19T01:57:28;15.57;83.18
5938;DHT22;2994;51.220;4.412;2023-11-19T01:59:54;15.58;83.11
5938;DHT22;2994;51.220;4.412;2023-11-19T02:02:20;15.57;83.06
5938;DHT22;2994;51.220;4.412;2023-11-19T02:04:47;15.52;83.02
5938;DHT22;2994;51.220;4.412;2023-11-19T02:07:14;15.44;82.97
5938;DHT22;2994;51.220;4.412;2023-11-19T02:09:42;15.49;82.87
5938;DHT22;2994;51.220;4.412;2023-11-19T02:12:07;15.48;82.65
5938;DHT22;2994;51.220;4.412;2023-11-19T02:14:33;15.28;83.14
5938;DHT22;2994;51.220;4.412;2023-11-19T02:16:58;15.34;83.07
5938;DHT22;2994;51.220;4.412;2023-11-19T02:19:24;15.42;82.78
5938;DHT22;2994;51.220;4.412;2023-11-19T02:21:49;15.46;82.68
5938;DHT22;2994;51.220;4.412;2023-11-19T02:24:17;15.51;82.46
5938;DHT22;2994;51.220;4.412;2023-11-19T02:26:53;15.52;82.50
5938;DHT22;2994;51.220;4.412;2023-11-19T02:29:21;15.53;82.42
5938;DHT22;2994;51.220;4.412;2023-11-19T02:31:47;15.52;82.46
5938;DHT22;2994;51.220;4.412;2023-11-19T02:34:12;15.44;82.75
5938;DHT22;2994;51.220;4.412;2023-11-19T02:36:39;15.37;82.84
5938;DHT22;2994;51.220;4.412;2023-11-19T02:39:07;15.31;83.04
5938;DHT22;2994;51.220;4.412;2023-11-19T02:41:35;15.38;82.87
5938;DHT22;2994;51.220;4.412;2023-11-19T02:44:01;15.37;82.89
5938;DHT22;2994;51.220;4.412;2023-11-19T02:46:26;15.43;82.69
5938;DHT22;2994;51.220;4.412;2023-11-19T02:48:52;15.31;82.58
5938;DHT22;2994;51.220;4.412;2023-11-19T02:51:17;15.15;83.00
5938;DHT22;2994;51.220;4.412;2023-11-19T02:53:44;15.13;82.81
5938;DHT22;2994;51.220;4.412;2023-11-19T02:56:09;15.29;82.43
5938;DHT22;2994;51.220;4.412;2023-11-19T02:58:45;15.25;82.44
5938;DHT22;2994;51.220;4.412;2023-11-19T03:01:11;15.21;82.71
5938;DHT22;2994;51.220;4.412;2023-11-19T03:03:49;15.25;82.54
5938;DHT22;2994;51.220;4.412;2023-11-19T03:06:19;15.12;83.09
5938;DHT22;2994;51.220;4.412;2023-11-19T03:08:45;15.21;82.86
5938;DHT22;2994;51.220;4.412;2023-11-19T03:11:10;15.00;83.39
5938;DHT22;2994;51.220;4.412;2023-11-19T03:13:36;15.07;83.08
5938;DHT22;2994;51.220;4.412;2023-11-19T03:16:01;15.13;82.93
5938;DHT22;2994;51.220;4.412;2023-11-19T03:18:26;15.21;82.67
5938;DHT22;2994;51.220;4.412;2023-11-19T03:20:53;15.21;82.58
5938;DHT22;2994;51.220;4.412;2023-11-19T03:23:19;15.11;82.81
5938;DHT22;2994;51.220;4.412;2023-11-19T03:25:44;15.23;82.35
5938;DHT22;2994;51.220;4.412;2023-11-19T03:28:10;15.28;82.20
5938;DHT22;2994;51.220;4.412;2023-11-19T03:30:36;15.26;82.24
5938;DHT22;2994;51.220;4.412;2023-11-19T03:33:01;15.24;82.27
5938;DHT22;2994;51.220;4.412;2023-11-19T03:35:27;15.27;82.13
5938;DHT22;2994;51.220;4.412;2023-11-19T03:37:53;15.13;82.57
5938;DHT22;2994;51.220;4.412;2023-11-19T03:40:18;15.26;82.20
5938;DHT22;2994;51.220;4.412;2023-11-19T03:42:47;15.27;82.15
5938;DHT22;2994;51.220;4.412;2023-11-19T03:45:13;15.21;82.27
5938;DHT22;2994;51.220;4.412;2023-11-19T03:47:39;15.07;82.52
5938;DHT22;2994;51.220;4.412;2023-11-19T03:50:06;15.18;82.10
5938;DHT22;2994;51.220;4.412;2023-11-19T03:52:32;15.18;82.04
5938;DHT22;2994;51.220;4.412;2023-11-19T03:54:58;15.24;81.82
5938;DHT22;2994;51.220;4.412;2023-11-19T03:57:24;15.15;81.77
5938;DHT22;2994;51.220;4.412;2023-11-19T03:59:49;15.23;81.45
5938;DHT22;2994;51.220;4.412;2023-11-19T04:02:17;15.23;81.41
5938;DHT22;2994;51.220;4.412;2023-11-19T04:04:43;15.28;81.23
5938;DHT22;2994;51.220;4.412;2023-11-19T04:07:08;15.23;81.20
5938;DHT22;2994;51.220;4.412;2023-11-19T04:09:34;15.03;81.55
5938;DHT22;2994;51.220;4.412;2023-11-19T04:12:00;15.04;81.40
5938;DHT22;2994;51.220;4.412;2023-11-19T04:14:26;15.03;81.35
5938;DHT22;2994;51.220;4.412;2023-11-19T04:16:51;15.16;81.08
5938;DHT22;2994;51.220;4.412;2023-11-19T04:19:20;15.18;81.13
5938;DHT22;2994;51.220;4.412;2023-11-19T04:21:46;15.09;81.23
5938;DHT22;2994;51.220;4.412;2023-11-19T04:24:13;15.08;81.17
5938;DHT22;2994;51.220;4.412;2023-11-19T04:26:43;14.96;80.96
5938;DHT22;2994;51.220;4.412;2023-11-19T04:29:11;14.97;81.09
5938;DHT22;2994;51.220;4.412;2023-11-19T04:31:37;14.98;80.88
5938;DHT22;2994;51.220;4.412;2023-11-19T04:34:02;15.00;80.67
5938;DHT22;2994;51.220;4.412;2023-11-19T04:36:28;14.95;80.59
5938;DHT22;2994;51.220;4.412;2023-11-19T04:38:55;14.99;80.24
5938;DHT22;2994;51.220;4.412;2023-11-19T04:41:20;14.97;79.93
5938;DHT22;2994;51.220;4.412;2023-11-19T04:43:45;14.97;79.93
5938;DHT22;2994;51.220;4.412;2023-11-19T04:46:11;14.99;79.65
5938;DHT22;2994;51.220;4.412;2023-11-19T04:48:36;15.01;78.91
5938;DHT22;2994;51.220;4.412;2023-11-19T04:51:05;14.79;79.53
5938;DHT22;2994;51.220;4.412;2023-11-19T04:53:30;14.85;79.03
5938;DHT22;2994;51.220;4.412;2023-11-19T04:55:56;14.84;78.96
5938;DHT22;2994;51.220;4.412;2023-11-19T04:58:21;14.83;78.74
5938;DHT22;2994;51.220;4.412;2023-11-19T05:00:47;14.73;78.84
5938;DHT22;2994;51.220;4.412;2023-11-19T05:03:12;14.73;78.94
5938;DHT22;2994;51.220;4.412;2023-11-19T05:05:38;14.79;78.78
5938;DHT22;2994;51.220;4.412;2023-11-19T05:08:03;14.72;78.61
5938;DHT22;2994;51.220;4.412;2023-11-19T05:10:30;14.55;78.77
5938;DHT22;2994;51.220;4.412;2023-11-19T05:12:55;14.64;78.76
5938;DHT22;2994;51.220;4.412;2023-11-19T05:15:21;14.68;78.50
5938;DHT22;2994;51.220;4.412;2023-11-19T05:17:47;14.63;78.51
5938;DHT22;2994;51.220;4.412;2023-11-19T05:20:13;14.67;78.53
5938;DHT22;2994;51.220;4.412;2023-11-19T05:22:42;14.66;78.53
5938;DHT22;2994;51.220;4.412;2023-11-19T05:25:08;14.58;78.50
5938;DHT22;2994;51.220;4.412;2023-11-19T05:27:37;14.56;78.55
5938;DHT22;2994;51.220;4.412;2023-11-19T05:30:04;14.57;78.36
5938;DHT22;2994;51.220;4.412;2023-11-19T05:32:32;14.58;77.51
5938;DHT22;2994;51.220;4.412;2023-11-19T05:34:58;14.58;77.68
5938;DHT22;2994;51.220;4.412;2023-11-19T05:37:23;14.56;77.70
5938;DHT22;2994;51.220;4.412;2023-11-19T05:39:48;14.43;77.90
5938;DHT22;2994;51.220;4.412;2023-11-19T05:42:14;14.34;77.98
5938;DHT22;2994;51.220;4.412;2023-11-19T05:44:39;14.39;77.89
5938;DHT22;2994;51.220;4.412;2023-11-19T05:47:05;14.40;77.44
5938;DHT22;2994;51.220;4.412;2023-11-19T05:49:30;14.44;77.25
5938;DHT22;2994;51.220;4.412;2023-11-19T05:51:56;14.47;77.21
5938;DHT22;2994;51.220;4.412;2023-11-19T05:54:21;14.44;77.22
5938;DHT22;2994;51.220;4.412;2023-11-19T05:56:48;14.33;77.46
5938;DHT22;2994;51.220;4.412;2023-11-19T05:59:14;14.47;77.23
5938;DHT22;2994;51.220;4.412;2023-11-19T06:01:43;14.51;77.10
5938;DHT22;2994;51.220;4.412;2023-11-19T06:04:09;14.49;77.15
5938;DHT22;2994;51.220;4.412;2023-11-19T06:06:35;14.42;77.37
5938;DHT22;2994;51.220;4.412;2023-11-19T06:09:01;14.41;77.36
5938;DHT22;2994;51.220;4.412;2023-11-19T06:11:27;14.45;77.27
5938;DHT22;2994;51.220;4.412;2023-11-19T06:13:53;14.42;77.34
5938;DHT22;2994;51.220;4.412;2023-11-19T06:16:18;14.47;77.20
5938;DHT22;2994;51.220;4.412;2023-11-19T06:18:44;14.48;77.15
5938;DHT22;2994;51.220;4.412;2023-11-19T06:21:10;14.52;77.24
5938;DHT22;2994;51.220;4.412;2023-11-19T06:23:36;14.47;77.00
5938;DHT22;2994;51.220;4.412;2023-11-19T06:26:01;14.47;77.28
5938;DHT22;2994;51.220;4.412;2023-11-19T06:28:26;14.37;77.31
5938;DHT22;2994;51.220;4.412;2023-11-19T06:30:52;14.33;77.50
5938;DHT22;2994;51.220;4.412;2023-11-19T06:33:18;14.34;77.60
5938;DHT22;2994;51.220;4.412;2023-11-19T06:35:43;14.38;77.46
5938;DHT22;2994;51.220;4.412;2023-11-19T06:38:09;14.43;77.23
5938;DHT22;2994;51.220;4.412;2023-11-19T06:40:34;14.44;77.21
5938;DHT22;2994;51.220;4.412;2023-11-19T06:43:03;14.40;77.04
5938;DHT22;2994;51.220;4.412;2023-11-19T06:45:29;14.17;77.55
5938;DHT22;2994;51.220;4.412;2023-11-19T06:47:55;14.27;76.88
5938;DHT22;2994;51.220;4.412;2023-11-19T06:50:20;14.28;76.94
5938;DHT22;2994;51.220;4.412;2023-11-19T06:52:46;14.29;76.99
5938;DHT22;2994;51.220;4.412;2023-11-19T06:55:12;14.33;76.73
5938;DHT22;2994;51.220;4.412;2023-11-19T06:57:37;14.38;76.86
5938;DHT22;2994;51.220;4.412;2023-11-19T07:00:04;14.34;76.74
5938;DHT22;2994;51.220;4.412;2023-11-19T07:02:31;14.32;77.09
5938;DHT22;2994;51.220;4.412;2023-11-19T07:04:56;14.33;76.97
5938;DHT22;2994;51.220;4.412;2023-11-19T07:07:22;14.14;77.58
5938;DHT22;2994;51.220;4.412;2023-11-19T07:09:47;14.13;77.81
5938;DHT22;2994;51.220;4.412;2023-11-19T07:12:13;14.30;77.12
5938;DHT22;2994;51.220;4.412;2023-11-19T07:14:39;14.28;77.21
5938;DHT22;2994;51.220;4.412;2023-11-19T07:17:05;14.22;77.14
5938;DHT22;2994;51.220;4.412;2023-11-19T07:19:31;14.23;77.15
5938;DHT22;2994;51.220;4.412;2023-11-19T07:21:56;14.36;77.10
5938;DHT22;2994;51.220;4.412;2023-11-19T07:24:22;14.27;77.06
5938;DHT22;2994;51.220;4.412;2023-11-19T07:26:48;14.33;77.18
5938;DHT22;2994;51.220;4.412;2023-11-19T07:29:16;14.35;77.18
5938;DHT22;2994;51.220;4.412;2023-11-19T07:31:42;14.29;77.15
5938;DHT22;2994;51.220;4.412;2023-11-19T07:34:10;14.30;77.22
5938;DHT22;2994;51.220;4.412;2023-11-19T07:36:36;14.27;77.47
5938;DHT22;2994;51.220;4.412;2023-11-19T07:39:03;14.22;77.51
5938;DHT22;2994;51.220;4.412;2023-11-19T07:41:30;14.32;77.46
5938;DHT22;2994;51.220;4.412;2023-11-19T07:43:56;14.27;77.59
5938;DHT22;2994;51.220;4.412;2023-11-19T07:46:21;14.25;77.63
5938;DHT22;2994;51.220;4.412;2023-11-19T07:48:46;14.26;77.68
5938;DHT22;2994;51.220;4.412;2023-11-19T07:51:13;14.35;77.52
5938;DHT22;2994;51.220;4.412;2023-11-19T07:53:39;14.35;77.61
5938;DHT22;2994;51.220;4.412;2023-11-19T07:56:06;14.28;77.86
5938;DHT22;2994;51.220;4.412;2023-11-19T07:58:32;14.30;77.87
5938;DHT22;2994;51.220;4.412;2023-11-19T08:00:58;14.33;77.91
5938;DHT22;2994;51.220;4.412;2023-11-19T08:03:23;14.40;77.65
5938;DHT22;2994;51.220;4.412;2023-11-19T08:05:48;14.37;77.66
5938;DHT22;2994;51.220;4.412;2023-11-19T08:08:14;14.30;77.95
5938;DHT22;2994;51.220;4.412;2023-11-19T08:10:40;14.27;78.05
5938;DHT22;2994;51.220;4.412;2023-11-19T08:13:06;14.33;77.92
5938;DHT22;2994;51.220;4.412;2023-11-19T08:15:31;14.40;77.68
5938;DHT22;2994;51.220;4.412;2023-11-19T08:17:57;14.19;78.36
5938;DHT22;2994;51.220;4.412;2023-11-19T08:20:23;14.39;77.72
5938;DHT22;2994;51.220;4.412;2023-11-19T08:22:48;14.38;77.74
5938;DHT22;2994;51.220;4.412;2023-11-19T08:25:14;14.35;77.72
5938;DHT22;2994;51.220;4.412;2023-11-19T08:27:40;14.45;77.46
5938;DHT22;2994;51.220;4.412;2023-11-19T08:30:05;14.47;77.51
5938;DHT22;2994;51.220;4.412;2023-11-19T08:32:31;14.48;77.08
5938;DHT22;2994;51.220;4.412;2023-11-19T08:34:57;14.50;77.21
5938;DHT22;2994;51.220;4.412;2023-11-19T08:37:22;14.55;77.18
5938;DHT22;2994;51.220;4.412;2023-11-19T08:39:48;14.48;77.27
5938;DHT22;2994;51.220;4.412;2023-11-19T08:42:14;14.52;77.24
5938;DHT22;2994;51.220;4.412;2023-11-19T08:44:39;14.42;77.26
5938;DHT22;2994;51.220;4.412;2023-11-19T08:47:08;14.40;77.75
5938;DHT22;2994;51.220;4.412;2023-11-19T08:49:34;14.48;77.42
5938;DHT22;2994;51.220;4.412;2023-11-19T08:52:00;14.15;78.69
5938;DHT22;2994;51.220;4.412;2023-11-19T08:54:25;14.39;77.91
5938;DHT22;2994;51.220;4.412;2023-11-19T08:56:51;14.53;77.52
5938;DHT22;2994;51.220;4.412;2023-11-19T08:59:16;14.55;77.53
5938;DHT22;2994;51.220;4.412;2023-11-19T09:01:42;14.54;77.59
5938;DHT22;2994;51.220;4.412;2023-11-19T09:04:07;14.44;77.82
5938;DHT22;2994;51.220;4.412;2023-11-19T09:06:33;14.49;77.61
5938;DHT22;2994;51.220;4.412;2023-11-19T09:08:58;14.35;77.81
5938;DHT22;2994;51.220;4.412;2023-11-19T09:11:28;14.30;78.30
5938;DHT22;2994;51.220;4.412;2023-11-19T09:13:53;14.51;77.53
5938;DHT22;2994;51.220;4.412;2023-11-19T09:16:18;14.43;77.63
5938;DHT22;2994;51.220;4.412;2023-11-19T09:18:44;14.51;77.17
5938;DHT22;2994;51.220;4.412;2023-11-19T09:21:12;14.64;76.84
5938;DHT22;2994;51.220;4.412;2023-11-19T09:23:38;14.67;76.49
5938;DHT22;2994;51.220;4.412;2023-11-19T09:26:13;14.72;76.19
5938;DHT22;2994;51.220;4.412;2023-11-19T09:28:42;14.62;76.70
5938;DHT22;2994;51.220;4.412;2023-11-19T09:31:17;14.49;77.08
5938;DHT22;2994;51.220;4.412;2023-11-19T09:33:43;14.55;77.09
5938;DHT22;2994;51.220;4.412;2023-11-19T09:36:09;14.62;76.94
5938;DHT22;2994;51.220;4.412;2023-11-19T09:38:36;14.70;76.93
5938;DHT22;2994;51.220;4.412;2023-11-19T09:41:06;14.59;76.95
5938;DHT22;2994;51.220;4.412;2023-11-19T09:43:37;14.63;76.76
5938;DHT22;2994;51.220;4.412;2023-11-19T09:46:12;14.78;76.71
5938;DHT22;2994;51.220;4.412;2023-11-19T09:48:39;14.75;76.72
5938;DHT22;2994;51.220;4.412;2023-11-19T09:51:11;14.85;76.06
5938;DHT22;2994;51.220;4.412;2023-11-19T09:53:37;14.77;76.28
5938;DHT22;2994;51.220;4.412;2023-11-19T09:56:06;14.69;76.47
5938;DHT22;2994;51.220;4.412;2023-11-19T09:58:33;14.80;76.31
5938;DHT22;2994;51.220;4.412;2023-11-19T10:00:59;14.79;76.06
5938;DHT22;2994;51.220;4.412;2023-11-19T10:03:29;14.55;76.70
5938;DHT22;2994;51.220;4.412;2023-11-19T10:05:57;14.71;76.35
5938;DHT22;2994;51.220;4.412;2023-11-19T10:08:23;14.63;76.57
5938;DHT22;2994;51.220;4.412;2023-11-19T10:10:48;14.86;75.99
5938;DHT22;2994;51.220;4.412;2023-11-19T10:13:14;14.86;75.93
5938;DHT22;2994;51.220;4.412;2023-11-19T10:15:40;14.92;75.86
5938;DHT22;2994;51.220;4.412;2023-11-19T10:18:06;14.91;75.63
5938;DHT22;2994;51.220;4.412;2023-11-19T10:20:38;15.11;74.98
5938;DHT22;2994;51.220;4.412;2023-11-19T10:23:05;15.30;74.17
5938;DHT22;2994;51.220;4.412;2023-11-19T10:25:32;15.27;74.34
5938;DHT22;2994;51.220;4.412;2023-11-19T10:27:58;15.07;74.99
5938;DHT22;2994;51.220;4.412;2023-11-19T10:30:25;15.01;75.50
5938;DHT22;2994;51.220;4.412;2023-11-19T10:33:12;15.06;75.98
5938;DHT22;2994;51.220;4.412;2023-11-19T10:38:22;15.18;76.21
5938;DHT22;2994;51.220;4.412;2023-11-19T10:40:48;15.15;76.30
5938;DHT22;2994;51.220;4.412;2023-11-19T10:43:13;15.11;76.60
5938;DHT22;2994;51.220;4.412;2023-11-19T10:45:40;15.13;76.79
5938;DHT22;2994;51.220;4.412;2023-11-19T10:48:06;15.18;76.59
5938;DHT22;2994;51.220;4.412;2023-11-19T10:50:36;15.23;76.34
5938;DHT22;2994;51.220;4.412;2023-11-19T10:53:03;15.25;76.34
5938;DHT22;2994;51.220;4.412;2023-11-19T10:58:44;15.04;76.08
5938;DHT22;2994;51.220;4.412;2023-11-19T11:01:22;15.17;76.06
5938;DHT22;2994;51.220;4.412;2023-11-19T11:03:50;15.17;76.14
5938;DHT22;2994;51.220;4.412;2023-11-19T11:06:17;15.25;75.75
5938;DHT22;2994;51.220;4.412;2023-11-19T11:08:44;14.93;76.64
5938;DHT22;2994;51.220;4.412;2023-11-19T11:11:13;14.99;76.62
5938;DHT22;2994;51.220;4.412;2023-11-19T11:13:42;15.10;76.25
5938;DHT22;2994;51.220;4.412;2023-11-19T11:16:08;15.18;75.88
5938;DHT22;2994;51.220;4.412;2023-11-19T11:18:33;15.30;75.50
5938;DHT22;2994;51.220;4.412;2023-11-19T11:21:20;15.06;76.11
5938;DHT22;2994;51.220;4.412;2023-11-19T11:35:08;15.40;74.58
5938;DHT22;2994;51.220;4.412;2023-11-19T11:37:38;15.38;74.92
5938;DHT22;2994;51.220;4.412;2023-11-19T11:40:05;15.25;75.07
5938;DHT22;2994;51.220;4.412;2023-11-19T11:42:36;15.32;74.60
5938;DHT22;2994;51.220;4.412;2023-11-19T11:45:09;15.22;75.15
5938;DHT22;2994;51.220;4.412;2023-11-19T11:50:11;15.34;74.91
5938;DHT22;2994;51.220;4.412;2023-11-19T11:55:24;15.63;73.62
5938;DHT22;2994;51.220;4.412;2023-11-19T11:57:50;15.58;73.21
5938;DHT22;2994;51.220;4.412;2023-11-19T12:00:22;15.54;73.46
5938;DHT22;2994;51.220;4.412;2023-11-19T12:02:51;15.54;73.41
5938;DHT22;2994;51.220;4.412;2023-11-19T12:05:16;15.52;73.55
5938;DHT22;2994;51.220;4.412;2023-11-19T12:08:00;15.40;74.57
5938;DHT22;2994;51.220;4.412;2023-11-19T12:10:29;15.36;75.25
5938;DHT22;2994;51.220;4.412;2023-11-19T12:13:01;15.37;75.73
5938;DHT22;2994;51.220;4.412;2023-11-19T12:15:27;15.36;76.14
5938;DHT22;2994;51.220;4.412;2023-11-19T12:17:56;15.15;77.21
5938;DHT22;2994;51.220;4.412;2023-11-19T12:20:25;15.16;77.65
5938;DHT22;2994;51.220;4.412;2023-11-19T12:22:52;15.21;77.81
5938;DHT22;2994;51.220;4.412;2023-11-19T12:25:19;15.25;77.83
5938;DHT22;2994;51.220;4.412;2023-11-19T12:27:50;15.09;78.38
5938;DHT22;2994;51.220;4.412;2023-11-19T12:30:25;15.17;78.07
5938;DHT22;2994;51.220;4.412;2023-11-19T12:32:51;15.17;78.11
5938;DHT22;2994;51.220;4.412;2023-11-19T12:35:19;14.92;79.08
5938;DHT22;2994;51.220;4.412;2023-11-19T12:37:49;14.86;79.47
5938;DHT22;2994;51.220;4.412;2023-11-19T12:40:19;14.87;79.47
5938;DHT22;2994;51.220;4.412;2023-11-19T12:42:48;14.95;79.24
5938;DHT22;2994;51.220;4.412;2023-11-19T12:45:14;15.01;79.05
5938;DHT22;2994;51.220;4.412;2023-11-19T12:47:42;15.08;78.88
5938;DHT22;2994;51.220;4.412;2023-11-19T12:50:08;15.06;78.67
5938;DHT22;2994;51.220;4.412;2023-11-19T12:52:38;15.09;78.71
5938;DHT22;2994;51.220;4.412;2023-11-19T12:55:05;15.07;78.64
5938;DHT22;2994;51.220;4.412;2023-11-19T12:57:41;15.15;78.62
5938;DHT22;2994;51.220;4.412;2023-11-19T13:00:17;15.19;78.58
5938;DHT22;2994;51.220;4.412;2023-11-19T13:02:50;15.30;78.30
5938;DHT22;2994;51.220;4.412;2023-11-19T13:05:29;15.21;78.59
5938;DHT22;2994;51.220;4.412;2023-11-19T13:08:07;15.18;78.56
5938;DHT22;2994;51.220;4.412;2023-11-19T13:10:33;15.14;78.69
5938;DHT22;2994;51.220;4.412;2023-11-19T13:13:10;15.13;78.42
5938;DHT22;2994;51.220;4.412;2023-11-19T13:15:35;15.11;78.26
5938;DHT22;2994;51.220;4.412;2023-11-19T13:18:01;15.16;78.12
5938;DHT22;2994;51.220;4.412;2023-11-19T13:20:28;15.12;78.42
5938;DHT22;2994;51.220;4.412;2023-11-19T13:23:01;15.04;78.66
5938;DHT22;2994;51.220;4.412;2023-11-19T13:25:27;14.98;78.92
5938;DHT22;2994;51.220;4.412;2023-11-19T13:27:53;15.12;78.69
5938;DHT22;2994;51.220;4.412;2023-11-19T13:30:20;15.21;78.72
5938;DHT22;2994;51.220;4.412;2023-11-19T13:32:48;15.12;79.07
5938;DHT22;2994;51.220;4.412;2023-11-19T13:35:17;15.16;78.91
5938;DHT22;2994;51.220;4.412;2023-11-19T13:37:43;15.13;78.74
5938;DHT22;2994;51.220;4.412;2023-11-19T13:40:10;15.13;78.61
5938;DHT22;2994;51.220;4.412;2023-11-19T13:42:38;15.04;78.90
5938;DHT22;2994;51.220;4.412;2023-11-19T13:45:10;14.92;78.72
5938;DHT22;2994;51.220;4.412;2023-11-19T13:47:40;15.00;78.46
5938;DHT22;2994;51.220;4.412;2023-11-19T13:50:10;15.11;78.20
5938;DHT22;2994;51.220;4.412;2023-11-19T13:52:40;14.99;78.59
5938;DHT22;2994;51.220;4.412;2023-11-19T13:55:06;14.99;78.43
5938;DHT22;2994;51.220;4.412;2023-11-19T13:57:34;15.00;77.99
5938;DHT22;2994;51.220;4.412;2023-11-19T14:00:00;14.95;78.20
5938;DHT22;2994;51.220;4.412;2023-11-19T14:02:25;14.88;78.38
5938;DHT22;2994;51.220;4.412;2023-11-19T14:04:51;14.93;78.05
5938;DHT22;2994;51.220;4.412;2023-11-19T14:07:16;14.95;78.18
5938;DHT22;2994;51.220;4.412;2023-11-19T14:09:42;15.03;77.97
5938;DHT22;2994;51.220;4.412;2023-11-19T14:12:08;15.11;77.67
5938;DHT22;2994;51.220;4.412;2023-11-19T14:14:34;15.22;77.42
5938;DHT22;2994;51.220;4.412;2023-11-19T14:17:01;15.11;77.89
5938;DHT22;2994;51.220;4.412;2023-11-19T14:19:28;15.14;77.72
5938;DHT22;2994;51.220;4.412;2023-11-19T14:21:54;15.09;77.79
5938;DHT22;2994;51.220;4.412;2023-11-19T14:24:19;15.12;77.72
5938;DHT22;2994;51.220;4.412;2023-11-19T14:26:46;15.12;77.84
5938;DHT22;2994;51.220;4.412;2023-11-19T14:29:12;14.95;78.79
5938;DHT22;2994;51.220;4.412;2023-11-19T14:31:38;14.92;79.17
5938;DHT22;2994;51.220;4.412;2023-11-19T14:34:03;14.88;79.71
5938;DHT22;2994;51.220;4.412;2023-11-19T14:36:29;15.09;79.19
5938;DHT22;2994;51.220;4.412;2023-11-19T14:38:54;14.84;79.84
5938;DHT22;2994;51.220;4.412;2023-11-19T14:41:19;15.03;79.27
5938;DHT22;2994;51.220;4.412;2023-11-19T14:43:45;14.98;79.25
5938;DHT22;2994;51.220;4.412;2023-11-19T14:46:10;15.00;79.19
5938;DHT22;2994;51.220;4.412;2023-11-19T14:48:36;15.01;79.11
5938;DHT22;2994;51.220;4.412;2023-11-19T14:51:01;14.98;78.91
5938;DHT22;2994;51.220;4.412;2023-11-19T14:53:28;14.92;79.24
5938;DHT22;2994;51.220;4.412;2023-11-19T14:55:54;14.97;79.05
5938;DHT22;2994;51.220;4.412;2023-11-19T14:58:20;14.96;79.11
5938;DHT22;2994;51.220;4.412;2023-11-19T15:00:45;14.91;79.30
5938;DHT22;2994;51.220;4.412;2023-11-19T15:03:10;14.79;79.72
5938;DHT22;2994;51.220;4.412;2023-11-19T15:05:37;14.83;79.27
5938;DHT22;2994;51.220;4.412;2023-11-19T15:08:03;14.87;79.09
5938;DHT22;2994;51.220;4.412;2023-11-19T15:10:28;14.74;79.40
5938;DHT22;2994;51.220;4.412;2023-11-19T15:12:53;14.81;79.28
5938;DHT22;2994;51.220;4.412;2023-11-19T15:15:19;14.85;79.21
5938;DHT22;2994;51.220;4.412;2023-11-19T15:17:45;14.74;79.72
5938;DHT22;2994;51.220;4.412;2023-11-19T15:20:13;14.75;79.80
5938;DHT22;2994;51.220;4.412;2023-11-19T15:22:43;14.83;79.55
5938;DHT22;2994;51.220;4.412;2023-11-19T15:25:08;14.77;79.73
5938;DHT22;2994;51.220;4.412;2023-11-19T15:27:35;14.83;79.41
5938;DHT22;2994;51.220;4.412;2023-11-19T15:30:01;14.83;79.43
5938;DHT22;2994;51.220;4.412;2023-11-19T15:32:28;14.91;79.37
5938;DHT22;2994;51.220;4.412;2023-11-19T15:34:57;14.95;78.94
5938;DHT22;2994;51.220;4.412;2023-11-19T15:37:22;14.93;78.99
5938;DHT22;2994;51.220;4.412;2023-11-19T15:39:48;14.83;79.14
5938;DHT22;2994;51.220;4.412;2023-11-19T15:42:16;14.85;79.08
5938;DHT22;2994;51.220;4.412;2023-11-19T15:44:41;14.77;79.18
5938;DHT22;2994;51.220;4.412;2023-11-19T15:47:08;14.49;79.47
5938;DHT22;2994;51.220;4.412;2023-11-19T15:49:34;14.59;78.68
5938;DHT22;2994;51.220;4.412;2023-11-19T15:51:59;14.60;78.73
5938;DHT22;2994;51.220;4.412;2023-11-19T15:54:25;14.47;79.49
5938;DHT22;2994;51.220;4.412;2023-11-19T15:56:50;14.62;79.11
5938;DHT22;2994;51.220;4.412;2023-11-19T15:59:15;14.60;79.27
5938;DHT22;2994;51.220;4.412;2023-11-19T16:01:41;14.68;79.11
5938;DHT22;2994;51.220;4.412;2023-11-19T16:04:06;14.67;79.13
5938;DHT22;2994;51.220;4.412;2023-11-19T16:06:34;14.59;79.33
5938;DHT22;2994;51.220;4.412;2023-11-19T16:09:00;14.60;79.50
5938;DHT22;2994;51.220;4.412;2023-11-19T16:11:25;14.54;79.98
5938;DHT22;2994;51.220;4.412;2023-11-19T16:13:51;14.56;79.90
5938;DHT22;2994;51.220;4.412;2023-11-19T16:16:16;14.56;80.00
5938;DHT22;2994;51.220;4.412;2023-11-19T16:18:42;14.41;80.82
5938;DHT22;2994;51.220;4.412;2023-11-19T16:21:07;14.23;81.43